createdAt,value
2017-07-24T00:00:48.658Z,99924
2017-07-24T00:01:49.564Z,99925
2017-07-24T00:02:49.522Z,99914
2017-07-24T00:03:47.977Z,99916
2017-07-24T00:04:49.625Z,99914
2017-07-24T00:05:48.285Z,99914
2017-07-24T00:06:49.121Z,99912
2017-07-24T00:07:49.813Z,99911
2017-07-24T00:08:49.121Z,99913
2017-07-24T00:09:48.223Z,99902
2017-07-24T00:10:48.376Z,99908
2017-07-24T00:11:50.437Z,99905
2017-07-24T00:12:48.436Z,99902
2017-07-24T00:13:48.533Z,99903
2017-07-24T00:14:49.469Z,99897
2017-07-24T00:15:48.668Z,99898
2017-07-24T00:16:49.650Z,99899
2017-07-24T00:17:48.907Z,99883
2017-07-24T00:18:48.688Z,99891
2017-07-24T00:19:48.887Z,99890
2017-07-24T00:20:48.934Z,99892
2017-07-24T00:21:49.998Z,99889
2017-07-24T00:22:49.052Z,99879
2017-07-24T00:23:51.068Z,99885
2017-07-24T00:24:49.030Z,99877
2017-07-24T00:25:50.153Z,99880
2017-07-24T00:26:50.097Z,99881
2017-07-24T00:27:50.897Z,99879
2017-07-24T00:28:49.308Z,99880
2017-07-24T00:29:49.607Z,99882
2017-07-24T00:30:51.062Z,99876
2017-07-24T00:31:51.118Z,99874
2017-07-24T00:32:49.478Z,99877
2017-07-24T00:33:50.611Z,99873
2017-07-24T00:34:51.338Z,99866
2017-07-24T00:35:50.917Z,99873
2017-07-24T00:36:49.738Z,99873
2017-07-24T00:37:50.651Z,99870
2017-07-24T00:38:50.817Z,99873
2017-07-24T00:39:49.787Z,99867
2017-07-24T00:40:50.735Z,99866
2017-07-24T00:41:50.102Z,99864
2017-07-24T00:42:49.993Z,99863
2017-07-24T00:44:46.967Z,99858
2017-07-24T00:45:45.277Z,99856
2017-07-24T00:46:47.012Z,99850
2017-07-24T00:47:45.739Z,99851
2017-07-24T00:48:45.419Z,99850
2017-07-24T00:49:46.574Z,99850
2017-07-24T00:50:45.684Z,99848
2017-07-24T00:51:45.782Z,99847
2017-07-24T00:52:46.841Z,99845
2017-07-24T00:53:46.085Z,99846
2017-07-24T00:54:45.989Z,99844
2017-07-24T00:55:47.738Z,99845
2017-07-24T00:56:47.826Z,99843
2017-07-24T00:57:47.905Z,99842
2017-07-24T00:58:46.211Z,99841
2017-07-24T00:59:46.533Z,99840
2017-07-24T01:00:48.099Z,99838
2017-07-24T01:01:47.449Z,99829
2017-07-24T01:02:46.517Z,99836
2017-07-24T01:03:46.475Z,99835
2017-07-24T01:04:47.458Z,99839
2017-07-24T01:05:47.919Z,99835
2017-07-24T01:06:47.657Z,99834
2017-07-24T01:07:46.689Z,99830
2017-07-24T01:08:46.809Z,99832
2017-07-24T01:09:46.859Z,99828
2017-07-24T01:10:46.755Z,99831
2017-07-24T01:11:48.718Z,99836
2017-07-24T01:12:47.935Z,99834
2017-07-24T01:13:46.936Z,99834
2017-07-24T01:14:46.970Z,99823
2017-07-24T01:15:47.056Z,99827
2017-07-24T01:16:48.640Z,99830
2017-07-24T01:17:48.332Z,99829
2017-07-24T01:18:48.820Z,99825
2017-07-24T01:19:48.955Z,99818
2017-07-24T01:20:48.137Z,99825
2017-07-24T01:21:48.314Z,99815
2017-07-24T01:22:47.322Z,99823
2017-07-24T01:23:47.819Z,99823
2017-07-24T01:24:48.578Z,99822
2017-07-24T01:25:48.577Z,99816
2017-07-24T01:26:47.578Z,99814
2017-07-24T01:27:47.758Z,99812
2017-07-24T01:28:49.512Z,99805
2017-07-24T01:29:49.875Z,99810
2017-07-24T01:30:48.845Z,99814
2017-07-24T01:31:47.923Z,99814
2017-07-24T01:32:49.788Z,99815
2017-07-24T01:33:48.082Z,99805
2017-07-24T01:34:49.229Z,99811
2017-07-24T01:35:48.465Z,99816
2017-07-24T01:36:49.187Z,99810
2017-07-24T01:37:49.955Z,99808
2017-07-24T01:38:50.081Z,99804
2017-07-24T01:39:50.159Z,99804
2017-07-24T01:40:49.417Z,99807
2017-07-24T01:41:48.905Z,99807
2017-07-24T01:42:49.621Z,99806
2017-07-24T01:43:48.632Z,99799
2017-07-24T01:44:48.644Z,99799
2017-07-24T01:45:48.791Z,99794
2017-07-24T01:46:49.807Z,99799
2017-07-24T01:47:50.076Z,99791
2017-07-24T01:48:48.818Z,99801
2017-07-24T01:49:50.687Z,99800
2017-07-24T01:50:50.724Z,99796
2017-07-24T01:51:48.992Z,99792
2017-07-24T01:52:50.759Z,99784
2017-07-24T01:53:49.478Z,99786
2017-07-24T01:54:50.931Z,99783
2017-07-24T01:55:51.011Z,99785
2017-07-24T01:56:51.609Z,99781
2017-07-24T01:57:50.252Z,99780
2017-07-24T01:58:51.862Z,99780
2017-07-24T01:59:50.753Z,99779
2017-07-24T02:00:49.697Z,99771
2017-07-24T02:01:51.383Z,99777
2017-07-24T02:02:49.504Z,99776
2017-07-24T02:03:50.656Z,99777
2017-07-24T02:04:50.762Z,99773
2017-07-24T02:05:51.010Z,99768
2017-07-24T02:06:49.800Z,99772
2017-07-24T02:07:49.894Z,99774
2017-07-24T02:08:50.195Z,99772
2017-07-24T02:09:50.005Z,99767
2017-07-24T02:10:51.222Z,99771
2017-07-24T02:11:50.587Z,99772
2017-07-24T02:12:50.169Z,99769
2017-07-24T02:13:51.129Z,99764
2017-07-24T02:14:50.371Z,99763
2017-07-24T02:15:50.340Z,99760
2017-07-24T02:16:50.266Z,99757
2017-07-24T02:17:51.535Z,99759
2017-07-24T02:18:52.132Z,99750
2017-07-24T02:19:51.439Z,99754
2017-07-24T02:20:51.277Z,99757
2017-07-24T02:21:50.509Z,99754
2017-07-24T02:22:50.558Z,99757
2017-07-24T02:23:52.682Z,99750
2017-07-24T02:24:52.447Z,99756
2017-07-24T02:25:50.717Z,99752
2017-07-24T02:26:51.580Z,99744
2017-07-24T02:27:50.940Z,99749
2017-07-24T02:28:51.962Z,99752
2017-07-24T02:29:51.345Z,99747
2017-07-24T02:30:51.786Z,99748
2017-07-24T02:31:51.086Z,99747
2017-07-24T02:32:51.254Z,99747
2017-07-24T02:33:52.798Z,99746
2017-07-24T02:34:53.079Z,99741
2017-07-24T02:35:52.681Z,99744
2017-07-24T02:36:51.447Z,99745
2017-07-24T02:37:51.350Z,99745
2017-07-24T02:38:51.439Z,99748
2017-07-24T02:39:52.561Z,99746
2017-07-24T02:40:53.187Z,99748
2017-07-24T02:41:53.603Z,99745
2017-07-24T02:42:53.293Z,99736
2017-07-24T02:43:51.783Z,99744
2017-07-24T02:44:51.891Z,99736
2017-07-24T02:45:51.917Z,99748
2017-07-24T02:46:51.946Z,99738
2017-07-24T02:47:53.253Z,99744
2017-07-24T02:48:52.017Z,99737
2017-07-24T02:49:53.770Z,99744
2017-07-24T02:50:53.820Z,99743
2017-07-24T02:51:53.184Z,99736
2017-07-24T02:52:52.245Z,99745
2017-07-24T02:53:52.536Z,99742
2017-07-24T02:54:52.283Z,99746
2017-07-24T02:55:53.985Z,99745
2017-07-24T02:56:54.165Z,99739
2017-07-24T02:57:54.143Z,99746
2017-07-24T02:58:53.578Z,99745
2017-07-24T02:59:54.611Z,99750
2017-07-24T03:00:54.431Z,99751
2017-07-24T03:01:53.753Z,99750
2017-07-24T03:02:53.823Z,99740
2017-07-24T03:03:52.766Z,99748
2017-07-24T03:04:52.943Z,99750
2017-07-24T03:05:53.176Z,99746
2017-07-24T03:06:53.811Z,99750
2017-07-24T03:07:53.836Z,99753
2017-07-24T03:08:52.987Z,99753
2017-07-24T03:09:54.723Z,99750
2017-07-24T03:10:53.083Z,99739
2017-07-24T03:11:54.386Z,99749
2017-07-24T03:12:53.164Z,99747
2017-07-24T03:13:54.772Z,99745
2017-07-24T03:14:53.111Z,99744
2017-07-24T03:15:54.923Z,99741
2017-07-24T03:16:53.234Z,99731
2017-07-24T03:17:53.456Z,99737
2017-07-24T03:18:53.201Z,99736
2017-07-24T03:19:53.297Z,99740
2017-07-24T03:20:53.379Z,99731
2017-07-24T03:21:54.518Z,99734
2017-07-24T03:22:53.590Z,99732
2017-07-24T03:23:54.783Z,99732
2017-07-24T03:24:54.643Z,99721
2017-07-24T03:25:53.589Z,99734
2017-07-24T03:26:55.392Z,99734
2017-07-24T03:27:54.581Z,99732
2017-07-24T03:28:53.667Z,99729
2017-07-24T03:29:53.927Z,99731
2017-07-24T03:30:53.791Z,99731
2017-07-24T03:31:53.825Z,99726
2017-07-24T03:32:53.757Z,99734
2017-07-24T03:33:55.486Z,99733
2017-07-24T03:34:54.919Z,99728
2017-07-24T03:35:55.974Z,99732
2017-07-24T03:36:54.943Z,99734
2017-07-24T03:37:54.942Z,99729
2017-07-24T03:39:54.279Z,99733
2017-07-24T03:40:54.307Z,99729
2017-07-24T03:41:54.559Z,99738
2017-07-24T03:42:54.309Z,99736
2017-07-24T03:43:55.439Z,99739
2017-07-24T03:44:54.443Z,99727
2017-07-24T03:45:54.450Z,99733
2017-07-24T03:46:54.614Z,99735
2017-07-24T03:47:55.804Z,99729
2017-07-24T03:48:55.558Z,99732
2017-07-24T03:49:54.690Z,99725
2017-07-24T03:50:55.719Z,99732
2017-07-24T03:51:54.797Z,99735
2017-07-24T03:52:55.914Z,99727
2017-07-24T03:53:56.235Z,99734
2017-07-24T03:54:55.899Z,99728
2017-07-24T03:55:54.988Z,99736
2017-07-24T03:56:55.060Z,99737
2017-07-24T03:57:56.231Z,99735
2017-07-24T03:58:56.891Z,99738
2017-07-24T03:59:55.678Z,99728
2017-07-24T04:00:56.992Z,99737
2017-07-24T04:01:56.410Z,99737
2017-07-24T04:02:55.451Z,99734
2017-07-24T04:03:56.454Z,99738
2017-07-24T04:04:56.408Z,99730
2017-07-24T04:05:56.738Z,99738
2017-07-24T04:06:55.663Z,99737
2017-07-24T04:07:57.429Z,99729
2017-07-24T04:08:55.766Z,99729
2017-07-24T04:09:55.824Z,99724
2017-07-24T04:10:55.893Z,99730
2017-07-24T04:11:56.906Z,99730
2017-07-24T04:12:57.576Z,99729
2017-07-24T04:13:56.055Z,99726
2017-07-24T04:14:56.096Z,99728
2017-07-24T04:15:57.020Z,99725
2017-07-24T04:16:56.142Z,99717
2017-07-24T04:17:56.267Z,99728
2017-07-24T04:18:58.013Z,99728
2017-07-24T04:19:57.988Z,99718
2017-07-24T04:20:56.401Z,99724
2017-07-24T04:21:58.095Z,99723
2017-07-24T04:22:56.446Z,99728
2017-07-24T04:23:58.147Z,99723
2017-07-24T04:24:56.487Z,99721
2017-07-24T04:25:57.658Z,99717
2017-07-24T04:26:56.748Z,99714
2017-07-24T04:27:57.676Z,99714
2017-07-24T04:28:57.214Z,99712
2017-07-24T04:29:56.983Z,99711
2017-07-24T04:30:56.937Z,99711
2017-07-24T04:31:57.991Z,99712
2017-07-24T04:32:57.052Z,99711
2017-07-24T04:33:57.149Z,99701
2017-07-24T04:34:58.417Z,99707
2017-07-24T04:35:57.323Z,99704
2017-07-24T04:36:58.980Z,99702
2017-07-24T04:37:57.380Z,99704
2017-07-24T04:38:58.384Z,99701
2017-07-24T04:40:00.002Z,99703
2017-07-24T04:40:57.926Z,99703
2017-07-24T04:41:57.563Z,99705
2017-07-24T04:42:57.704Z,99696
2017-07-24T04:43:58.661Z,99692
2017-07-24T04:44:58.825Z,99690
2017-07-24T04:45:58.883Z,99698
2017-07-24T04:46:59.679Z,99699
2017-07-24T04:47:59.753Z,99696
2017-07-24T04:48:59.825Z,99696
2017-07-24T04:49:59.096Z,99698
2017-07-24T04:50:58.302Z,99696
2017-07-24T04:51:59.342Z,99699
2017-07-24T04:52:59.933Z,99699
2017-07-24T04:53:59.415Z,99701
2017-07-24T04:55:00.158Z,99689
2017-07-24T04:55:59.551Z,99702
2017-07-24T04:57:00.542Z,99703
2017-07-24T04:57:59.505Z,99707
2017-07-24T04:59:00.388Z,99712
2017-07-24T05:00:00.271Z,99708
2017-07-24T05:01:00.491Z,99707
2017-07-24T05:01:58.706Z,99708
2017-07-24T05:02:58.845Z,99707
2017-07-24T05:04:00.510Z,99700
2017-07-24T05:04:59.904Z,99698
2017-07-24T05:05:58.919Z,99702
2017-07-24T05:06:59.035Z,99693
2017-07-24T05:08:00.070Z,99694
2017-07-24T05:09:00.199Z,99693
2017-07-24T05:10:00.827Z,99688
2017-07-24T05:11:00.856Z,99690
2017-07-24T05:11:59.314Z,99692
2017-07-24T05:12:59.304Z,99696
2017-07-24T05:14:01.040Z,99695
2017-07-24T05:14:59.607Z,99683
2017-07-24T05:16:00.456Z,99692
2017-07-24T05:16:59.571Z,99693
2017-07-24T05:17:59.584Z,99695
2017-07-24T05:18:59.683Z,99692
2017-07-24T05:19:59.824Z,99692
2017-07-24T05:20:59.906Z,99691
2017-07-24T05:22:01.702Z,99695
2017-07-24T05:23:04.477Z,99695
2017-07-24T05:24:03.046Z,99692
2017-07-24T05:24:59.846Z,99697
2017-07-24T05:25:59.957Z,99693
2017-07-24T05:27:01.026Z,99701
2017-07-24T05:28:00.902Z,99693
2017-07-24T05:29:01.819Z,99702
2017-07-24T05:30:01.882Z,99698
2017-07-24T05:31:01.157Z,99695
2017-07-24T05:32:00.300Z,99686
2017-07-24T05:33:00.212Z,99697
2017-07-24T05:34:01.319Z,99695
2017-07-24T05:35:02.004Z,99695
2017-07-24T05:36:00.347Z,99693
2017-07-24T05:37:00.408Z,99687
2017-07-24T05:38:00.571Z,99699
2017-07-24T05:39:02.201Z,99696
2017-07-24T05:40:01.525Z,99700
2017-07-24T05:41:00.674Z,99691
2017-07-24T05:42:00.735Z,99698
2017-07-24T05:43:01.766Z,99698
2017-07-24T05:44:01.922Z,99693
2017-07-24T05:45:00.943Z,99696
2017-07-24T05:46:02.645Z,99679
2017-07-24T05:47:01.933Z,99680
2017-07-24T05:48:01.182Z,99684
2017-07-24T05:49:01.144Z,99687
2017-07-24T05:50:01.425Z,99696
2017-07-24T05:51:01.292Z,99700
2017-07-24T05:52:02.446Z,99703
2017-07-24T05:53:02.376Z,99704
2017-07-24T05:54:03.201Z,99706
2017-07-24T05:55:02.608Z,99702
2017-07-24T05:56:01.572Z,99702
2017-07-24T05:57:04.680Z,99696
2017-07-24T05:58:01.768Z,99699
2017-07-24T05:59:03.513Z,99702
2017-07-24T06:00:03.483Z,99700
2017-07-24T06:01:02.760Z,99697
2017-07-24T06:02:01.929Z,99700
2017-07-24T06:03:01.929Z,99695
2017-07-24T06:04:03.813Z,99692
2017-07-24T06:05:02.067Z,99691
2017-07-24T06:06:02.106Z,99695
2017-07-24T06:07:02.175Z,99689
2017-07-24T06:08:03.280Z,99690
2017-07-24T06:09:03.166Z,99695
2017-07-24T06:10:04.079Z,99694
2017-07-24T06:11:04.808Z,99691
2017-07-24T06:12:02.415Z,99692
2017-07-24T06:13:04.155Z,99690
2017-07-24T06:14:03.517Z,99693
2017-07-24T06:15:02.720Z,99689
2017-07-24T06:16:02.618Z,99694
2017-07-24T06:17:03.740Z,99693
2017-07-24T06:18:02.839Z,99679
2017-07-24T06:19:05.065Z,99679
2017-07-24T06:20:03.952Z,99680
2017-07-24T06:21:03.885Z,99683
2017-07-24T06:22:04.684Z,99692
2017-07-24T06:23:04.780Z,99691
2017-07-24T06:24:03.083Z,99681
2017-07-24T06:25:04.197Z,99688
2017-07-24T06:26:03.127Z,99693
2017-07-24T06:27:03.286Z,99690
2017-07-24T06:28:05.749Z,99692
2017-07-24T06:29:03.973Z,99681
2017-07-24T06:30:03.427Z,99684
2017-07-24T06:31:03.578Z,99691
2017-07-24T06:32:03.602Z,99688
2017-07-24T06:33:03.704Z,99691
2017-07-24T06:34:05.353Z,99688
2017-07-24T06:35:04.678Z,99692
2017-07-24T06:36:04.686Z,99690
2017-07-24T06:37:03.745Z,99688
2017-07-24T06:38:04.859Z,99679
2017-07-24T06:39:03.850Z,99686
2017-07-24T06:40:04.884Z,99615
2017-07-24T06:41:03.968Z,99682
2017-07-24T06:42:03.971Z,99681
2017-07-24T06:43:05.813Z,99682
2017-07-24T06:44:05.894Z,99675
2017-07-24T06:45:04.213Z,99685
2017-07-24T06:46:05.161Z,99681
2017-07-24T06:47:05.234Z,99683
2017-07-24T06:48:05.473Z,99689
2017-07-24T06:49:04.510Z,99677
2017-07-24T06:50:05.509Z,99679
2017-07-24T06:51:04.551Z,99688
2017-07-24T06:52:05.978Z,99684
2017-07-24T06:53:04.796Z,99685
2017-07-24T06:54:04.729Z,99684
2017-07-24T06:55:07.188Z,99682
2017-07-24T06:56:06.249Z,99682
2017-07-24T06:57:05.791Z,99684
2017-07-24T06:58:06.742Z,99683
2017-07-24T06:59:05.135Z,99683
2017-07-24T07:00:05.185Z,99679
2017-07-24T07:01:07.870Z,99683
2017-07-24T07:02:07.362Z,99681
2017-07-24T07:03:05.413Z,99680
2017-07-24T07:04:07.190Z,99670
2017-07-24T07:05:05.534Z,99678
2017-07-24T07:06:05.530Z,99669
2017-07-24T07:07:05.472Z,99678
2017-07-24T07:08:06.730Z,99679
2017-07-24T07:09:07.271Z,99679
2017-07-24T07:10:05.794Z,99681
2017-07-24T07:11:06.776Z,99678
2017-07-24T07:12:05.791Z,99683
2017-07-24T07:13:05.877Z,99684
2017-07-24T07:14:06.802Z,99684
2017-07-24T07:15:07.705Z,99686
2017-07-24T07:16:06.684Z,99689
2017-07-24T07:17:07.694Z,99686
2017-07-24T07:18:07.726Z,99684
2017-07-24T07:19:07.782Z,99686
2017-07-24T07:20:08.316Z,99682
2017-07-24T07:21:06.344Z,99679
2017-07-24T07:22:06.421Z,99683
2017-07-24T07:23:06.461Z,99669
2017-07-24T07:24:06.428Z,99680
2017-07-24T07:25:07.468Z,99679
2017-07-24T07:26:08.511Z,99687
2017-07-24T07:27:08.432Z,99687
2017-07-24T07:28:06.650Z,99684
2017-07-24T07:29:07.610Z,99674
2017-07-24T07:30:06.751Z,99683
2017-07-24T07:31:08.504Z,99685
2017-07-24T07:32:08.223Z,99685
2017-07-24T07:33:07.832Z,99686
2017-07-24T07:34:08.024Z,99684
2017-07-24T07:35:07.072Z,99688
2017-07-24T07:36:08.843Z,99685
2017-07-24T07:37:07.077Z,99685
2017-07-24T07:38:07.374Z,99685
2017-07-24T07:39:08.196Z,99682
2017-07-24T07:40:07.168Z,99684
2017-07-24T07:41:07.305Z,99686
2017-07-24T07:42:08.213Z,99683
2017-07-24T07:43:07.435Z,99684
2017-07-24T07:44:08.677Z,99684
2017-07-24T07:45:08.527Z,99681
2017-07-24T07:46:09.266Z,99663
2017-07-24T07:47:09.271Z,99682
2017-07-24T07:48:07.648Z,99678
2017-07-24T07:49:07.710Z,99678
2017-07-24T07:50:07.912Z,99671
2017-07-24T07:51:07.815Z,99676
2017-07-24T07:52:07.880Z,99674
2017-07-24T07:53:07.912Z,99668
2017-07-24T07:54:08.858Z,99674
2017-07-24T07:55:08.991Z,99674
2017-07-24T07:56:08.367Z,99675
2017-07-24T07:57:08.804Z,99677
2017-07-24T07:58:08.127Z,99678
2017-07-24T07:59:09.800Z,99674
2017-07-24T08:00:09.885Z,99679
2017-07-24T08:01:09.938Z,99680
2017-07-24T08:02:08.543Z,99669
2017-07-24T08:03:10.082Z,99679
2017-07-24T08:04:10.039Z,99678
2017-07-24T08:05:10.229Z,99672
2017-07-24T08:06:08.484Z,99670
2017-07-24T08:07:10.243Z,99673
2017-07-24T08:08:08.995Z,99669
2017-07-24T08:09:09.636Z,99667
2017-07-24T08:10:08.774Z,99657
2017-07-24T08:11:10.578Z,99668
2017-07-24T08:12:09.413Z,99666
2017-07-24T08:13:10.626Z,99660
2017-07-24T08:14:10.261Z,99669
2017-07-24T08:15:09.148Z,99668
2017-07-24T08:16:09.309Z,99670
2017-07-24T08:17:10.301Z,99673
2017-07-24T08:18:10.941Z,99664
2017-07-24T08:19:11.282Z,99670
2017-07-24T08:20:10.416Z,99670
2017-07-24T08:21:09.434Z,99670
2017-07-24T08:22:09.447Z,99670
2017-07-24T08:23:09.558Z,99673
2017-07-24T08:24:10.827Z,99676
2017-07-24T08:25:11.976Z,99674
2017-07-24T08:26:10.743Z,99676
2017-07-24T08:27:09.562Z,99676
2017-07-24T08:28:09.674Z,99680
2017-07-24T08:29:10.329Z,99678
2017-07-24T08:30:10.756Z,99684
2017-07-24T08:31:10.737Z,99684
2017-07-24T08:32:10.197Z,99684
2017-07-24T08:33:10.739Z,99687
2017-07-24T08:34:13.583Z,99676
2017-07-24T08:35:10.186Z,99682
2017-07-24T08:36:11.141Z,99679
2017-07-24T08:37:10.714Z,99680
2017-07-24T08:38:12.210Z,99673
2017-07-24T08:39:10.281Z,99677
2017-07-24T08:40:11.454Z,99667
2017-07-24T08:41:11.576Z,99677
2017-07-24T08:42:12.198Z,99676
2017-07-24T08:43:10.588Z,99674
2017-07-24T08:44:10.975Z,99669
2017-07-24T08:45:10.694Z,99675
2017-07-24T08:46:11.320Z,99676
2017-07-24T08:47:11.919Z,99671
2017-07-24T08:48:11.835Z,99676
2017-07-24T08:49:10.906Z,99663
2017-07-24T08:50:11.292Z,99670
2017-07-24T08:51:10.994Z,99665
2017-07-24T08:52:12.001Z,99646
2017-07-24T08:53:11.243Z,99662
2017-07-24T08:54:11.287Z,99670
2017-07-24T08:55:12.008Z,99664
2017-07-24T08:56:12.526Z,99674
2017-07-24T08:57:12.416Z,99676
2017-07-24T08:58:14.005Z,99676
2017-07-24T08:59:12.450Z,99678
2017-07-24T09:00:11.412Z,99677
2017-07-24T09:01:13.095Z,99676
2017-07-24T09:02:13.422Z,99674
2017-07-24T09:03:13.088Z,99674
2017-07-24T09:04:12.621Z,99660
2017-07-24T09:05:13.325Z,99669
2017-07-24T09:06:13.972Z,99666
2017-07-24T09:07:12.816Z,99668
2017-07-24T09:08:18.063Z,99670
2017-07-24T09:09:13.296Z,99669
2017-07-24T09:10:14.381Z,99670
2017-07-24T09:11:12.613Z,99660
2017-07-24T09:12:12.507Z,99665
2017-07-24T09:13:13.798Z,99672
2017-07-24T09:14:14.094Z,99671
2017-07-24T09:15:13.167Z,99672
2017-07-24T09:16:13.781Z,99673
2017-07-24T09:17:13.249Z,99666
2017-07-24T09:18:13.341Z,99665
2017-07-24T09:19:13.365Z,99663
2017-07-24T09:20:12.649Z,99654
2017-07-24T09:21:12.314Z,99663
2017-07-24T09:22:14.073Z,99660
2017-07-24T09:23:14.246Z,99651
2017-07-24T09:24:12.545Z,99664
2017-07-24T09:25:13.182Z,99664
2017-07-24T09:26:13.049Z,99663
2017-07-24T09:27:13.713Z,99666
2017-07-24T09:28:13.888Z,99654
2017-07-24T09:30:14.610Z,99662
2017-07-24T09:31:13.042Z,99667
2017-07-24T09:32:13.370Z,99661
2017-07-24T09:33:14.843Z,99667
2017-07-24T09:34:13.217Z,99667
2017-07-24T09:35:13.223Z,99667
2017-07-24T09:36:13.321Z,99665
2017-07-24T09:37:14.227Z,99665
2017-07-24T09:38:13.567Z,99663
2017-07-24T09:39:13.225Z,99664
2017-07-24T09:40:13.291Z,99662
2017-07-24T09:41:13.279Z,99663
2017-07-24T09:42:13.343Z,99659
2017-07-24T09:43:14.324Z,99653
2017-07-24T09:44:13.619Z,99661
2017-07-24T09:45:14.784Z,99665
2017-07-24T09:46:14.042Z,99660
2017-07-24T09:47:15.201Z,99661
2017-07-24T09:48:14.094Z,99661
2017-07-24T09:49:13.769Z,99664
2017-07-24T09:50:15.581Z,99666
2017-07-24T09:51:14.762Z,99653
2017-07-24T09:52:14.824Z,99656
2017-07-24T09:53:14.969Z,99665
2017-07-24T09:54:14.033Z,99665
2017-07-24T09:55:15.760Z,99666
2017-07-24T09:56:16.165Z,99661
2017-07-24T09:57:15.294Z,99669
2017-07-24T09:58:15.896Z,99670
2017-07-24T09:59:14.363Z,99661
2017-07-24T10:00:16.161Z,99665
2017-07-24T10:01:14.450Z,99671
2017-07-24T10:02:16.488Z,99665
2017-07-24T10:03:15.087Z,99665
2017-07-24T10:04:19.117Z,99659
2017-07-24T10:05:15.336Z,99661
2017-07-24T10:06:14.766Z,99655
2017-07-24T10:07:15.873Z,99663
2017-07-24T10:08:15.658Z,99666
2017-07-24T10:09:15.798Z,99664
2017-07-24T10:10:16.552Z,99663
2017-07-24T10:11:16.590Z,99661
2017-07-24T10:12:17.960Z,99659
2017-07-24T10:13:16.057Z,99660
2017-07-24T10:14:18.245Z,99663
2017-07-24T10:15:15.681Z,99665
2017-07-24T10:16:16.087Z,99662
2017-07-24T10:17:15.238Z,99666
2017-07-24T10:18:16.804Z,99662
2017-07-24T10:19:15.957Z,99658
2017-07-24T10:20:18.541Z,99660
2017-07-24T10:21:17.197Z,99657
2017-07-24T10:22:16.582Z,99657
2017-07-24T10:23:17.863Z,99655
2017-07-24T10:24:18.047Z,99655
2017-07-24T10:25:17.378Z,99655
2017-07-24T10:26:16.949Z,99653
2017-07-24T10:27:15.867Z,99653
2017-07-24T10:28:16.852Z,99649
2017-07-24T10:29:15.940Z,99652
2017-07-24T10:30:17.636Z,99655
2017-07-24T10:31:15.883Z,99652
2017-07-24T10:32:17.892Z,99644
2017-07-24T10:33:17.779Z,99646
2017-07-24T10:34:17.047Z,99653
2017-07-24T10:35:17.749Z,99649
2017-07-24T10:36:17.859Z,99653
2017-07-24T10:37:17.195Z,99649
2017-07-24T10:38:16.511Z,99646
2017-07-24T10:39:16.338Z,99646
2017-07-24T10:40:17.298Z,99652
2017-07-24T10:41:18.064Z,99649
2017-07-24T10:42:17.306Z,99646
2017-07-24T10:43:16.480Z,99639
2017-07-24T10:44:16.858Z,99644
2017-07-24T10:45:16.521Z,99647
2017-07-24T10:46:16.579Z,99646
2017-07-24T10:47:16.563Z,99644
2017-07-24T10:48:16.677Z,99645
2017-07-24T10:49:17.566Z,99637
2017-07-24T10:50:17.687Z,99643
2017-07-24T10:51:18.446Z,99646
2017-07-24T10:52:17.806Z,99646
2017-07-24T10:53:18.585Z,99647
2017-07-24T10:54:16.966Z,99654
2017-07-24T10:55:18.804Z,99649
2017-07-24T10:56:18.770Z,99643
2017-07-24T10:57:17.209Z,99643
2017-07-24T10:58:18.875Z,99647
2017-07-24T10:59:17.373Z,99648
2017-07-24T11:00:19.184Z,99641
2017-07-24T11:01:17.394Z,99643
2017-07-24T11:02:18.537Z,99645
2017-07-24T11:03:17.558Z,99638
2017-07-24T11:04:18.557Z,99645
2017-07-24T11:05:17.703Z,99649
2017-07-24T11:06:18.246Z,99635
2017-07-24T11:07:17.718Z,99641
2017-07-24T11:08:19.346Z,99639
2017-07-24T11:09:17.745Z,99642
2017-07-24T11:10:18.556Z,99634
2017-07-24T11:11:18.822Z,99638
2017-07-24T11:12:19.726Z,99631
2017-07-24T11:13:17.920Z,99637
2017-07-24T11:14:17.940Z,99639
2017-07-24T11:15:18.971Z,99639
2017-07-24T11:16:19.828Z,99641
2017-07-24T11:17:19.132Z,99644
2017-07-24T11:18:19.785Z,99640
2017-07-24T11:19:18.450Z,99642
2017-07-24T11:20:18.193Z,99642
2017-07-24T11:21:18.316Z,99643
2017-07-24T11:22:19.304Z,99635
2017-07-24T11:23:19.352Z,99639
2017-07-24T11:24:20.001Z,99640
2017-07-24T11:25:18.456Z,99637
2017-07-24T11:26:19.450Z,99634
2017-07-24T11:27:18.549Z,99626
2017-07-24T11:28:18.555Z,99634
2017-07-24T11:29:19.497Z,99601
2017-07-24T11:30:19.630Z,99632
2017-07-24T11:31:18.712Z,99634
2017-07-24T11:32:18.675Z,99630
2017-07-24T11:33:20.369Z,99629
2017-07-24T11:34:20.412Z,99627
2017-07-24T11:35:18.913Z,99627
2017-07-24T11:36:18.843Z,99626
2017-07-24T11:37:19.892Z,99629
2017-07-24T11:38:20.750Z,99629
2017-07-24T11:39:20.061Z,99620
2017-07-24T11:40:19.147Z,99624
2017-07-24T11:41:20.033Z,99626
2017-07-24T11:42:19.861Z,99626
2017-07-24T11:43:21.011Z,99625
2017-07-24T11:44:20.360Z,99628
2017-07-24T11:45:20.365Z,99625
2017-07-24T11:46:20.825Z,99623
2017-07-24T11:47:19.545Z,99625
2017-07-24T11:48:19.474Z,99621
2017-07-24T11:49:21.345Z,99621
2017-07-24T11:50:20.615Z,99625
2017-07-24T11:51:19.612Z,99627
2017-07-24T11:52:21.380Z,99623
2017-07-24T11:53:20.710Z,99630
2017-07-24T11:54:20.678Z,99626
2017-07-24T11:55:22.400Z,99619
2017-07-24T11:56:21.470Z,99632
2017-07-24T11:57:19.854Z,99627
2017-07-24T11:58:20.996Z,99628
2017-07-24T11:59:21.612Z,99626
2017-07-24T12:00:20.136Z,99633
2017-07-24T12:01:20.483Z,99629
2017-07-24T12:02:21.188Z,99624
2017-07-24T12:03:22.009Z,99628
2017-07-24T12:04:21.961Z,99629
2017-07-24T12:05:20.360Z,99623
2017-07-24T12:06:21.468Z,99625
2017-07-24T12:07:20.879Z,99635
2017-07-24T12:08:20.577Z,99632
2017-07-24T12:09:20.670Z,99634
2017-07-24T12:10:21.659Z,99625
2017-07-24T12:11:23.744Z,99637
2017-07-24T12:12:20.648Z,99637
2017-07-24T12:13:22.658Z,99641
2017-07-24T12:14:20.754Z,99636
2017-07-24T12:15:22.607Z,99641
2017-07-24T12:16:20.848Z,99645
2017-07-24T12:17:20.834Z,99647
2017-07-24T12:18:20.973Z,99643
2017-07-24T12:19:22.014Z,99637
2017-07-24T12:20:22.137Z,99638
2017-07-24T12:21:23.437Z,99638
2017-07-24T12:22:22.295Z,99638
2017-07-24T12:24:21.326Z,99645
2017-07-24T12:25:23.402Z,99641
2017-07-24T12:26:21.523Z,99640
2017-07-24T12:27:23.243Z,99640
2017-07-24T12:28:22.449Z,99631
2017-07-24T12:29:23.200Z,99638
2017-07-24T12:30:23.229Z,99642
2017-07-24T12:31:22.833Z,99642
2017-07-24T12:32:21.660Z,99641
2017-07-24T12:33:22.296Z,99641
2017-07-24T12:34:23.186Z,99638
2017-07-24T12:35:22.368Z,99641
2017-07-24T12:36:24.142Z,99641
2017-07-24T12:37:22.236Z,99637
2017-07-24T12:38:23.253Z,99643
2017-07-24T12:39:21.900Z,99646
2017-07-24T12:40:21.977Z,99644
2017-07-24T12:41:24.370Z,99639
2017-07-24T12:42:22.992Z,99645
2017-07-24T12:43:23.591Z,99643
2017-07-24T12:44:23.205Z,99642
2017-07-24T12:45:22.186Z,99640
2017-07-24T12:46:22.131Z,99637
2017-07-24T12:47:23.928Z,99635
2017-07-24T12:48:23.655Z,99642
2017-07-24T12:49:23.262Z,99639
2017-07-24T12:50:23.199Z,99641
2017-07-24T12:51:23.133Z,99634
2017-07-24T12:52:22.408Z,99643
2017-07-24T12:53:25.471Z,99642
2017-07-24T12:54:22.638Z,99636
2017-07-24T12:55:22.828Z,99642
2017-07-24T12:56:22.724Z,99644
2017-07-24T12:57:24.612Z,99644